Sant Antoni de Portmany, Spain
Current Conditions -  °F | °C
As of 11:30 AM on Sunday 26 Oct 2014 (Local Time) from LEIB Reporting Station
Clear Clear  
Wind Chill: 75°   Ceiling: Unl
Heat Index: 75°   Visibility: 6mi
Dew Point: 59°   Wind: 0mph
Humidity: 57%   Direction: NA
Pressure: 30.18"   Gusts: NA
Location:  38.98°N, 1.3°E
Report Text: LEIB 260930Z 00000KT CAVOK 24/15 Q1022 NOSIG
Loading
Personal Weather Stations






























Interactive Weather Map
Tropical Storm Tracking
New forecast layout! Learn more

10-Day Weather Forecast

Advertisements
Track Severe Weather on mobile